createdAt,value
2023-05-14T00:00:23.249Z,31.40
2023-05-14T00:00:53.784Z,31.40
2023-05-14T00:01:24.216Z,31.40
2023-05-14T00:01:54.660Z,31.40
2023-05-14T00:02:25.162Z,31.40
2023-05-14T00:02:55.773Z,31.40
2023-05-14T00:03:26.372Z,31.40
2023-05-14T00:03:56.906Z,31.40
2023-05-14T00:04:27.381Z,31.40
2023-05-14T00:04:57.849Z,31.51
2023-05-14T00:05:28.278Z,31.40
2023-05-14T00:05:58.709Z,31.40
2023-05-14T00:06:29.126Z,31.40
2023-05-14T00:06:59.553Z,31.51
2023-05-14T00:07:29.966Z,31.40
2023-05-14T00:08:00.393Z,31.40
2023-05-14T00:08:30.827Z,31.51
2023-05-14T00:09:01.256Z,31.52
2023-05-14T00:09:31.670Z,31.52
2023-05-14T00:10:02.135Z,31.51
2023-05-14T00:10:32.533Z,31.51
2023-05-14T00:11:02.952Z,31.51
2023-05-14T00:11:33.424Z,31.51
2023-05-14T00:12:03.844Z,31.52
2023-05-14T00:12:34.271Z,31.52
2023-05-14T00:13:04.693Z,31.52
2023-05-14T00:13:35.117Z,31.52
2023-05-14T00:14:05.544Z,31.52
2023-05-14T00:14:35.985Z,31.51
2023-05-14T00:15:06.420Z,31.51
2023-05-14T00:15:36.855Z,31.52
2023-05-14T00:16:07.327Z,31.52
2023-05-14T00:16:37.946Z,31.52
2023-05-14T00:17:08.476Z,31.52
2023-05-14T00:17:38.918Z,31.62
2023-05-14T00:18:09.390Z,31.62
2023-05-14T00:18:39.813Z,31.62
2023-05-14T00:19:10.287Z,31.62
2023-05-14T00:19:40.716Z,31.60
2023-05-14T00:20:11.144Z,31.62
2023-05-14T00:20:41.559Z,31.60
2023-05-14T00:21:11.995Z,31.62
2023-05-14T00:21:42.408Z,31.62
2023-05-14T00:22:12.830Z,31.62
2023-05-14T00:22:43.251Z,31.62
2023-05-14T00:23:13.686Z,31.62
2023-05-14T00:23:44.098Z,31.62
2023-05-14T00:24:14.550Z,31.62
2023-05-14T00:24:44.977Z,31.62
2023-05-14T00:25:15.415Z,31.62
2023-05-14T00:25:45.817Z,31.62
2023-05-14T00:26:16.247Z,31.62
2023-05-14T00:26:46.668Z,31.62
2023-05-14T00:27:17.082Z,31.62
2023-05-14T00:27:47.507Z,31.72
2023-05-14T00:28:17.956Z,31.72
2023-05-14T00:28:48.370Z,31.72
2023-05-14T00:29:18.811Z,31.72
2023-05-14T00:29:49.233Z,31.72
2023-05-14T00:30:19.685Z,31.72
2023-05-14T00:30:50.081Z,31.72
2023-05-14T00:31:20.557Z,31.72
2023-05-14T00:31:51.098Z,31.72
2023-05-14T00:32:21.600Z,31.72
2023-05-14T00:32:52.120Z,31.72
2023-05-14T00:33:22.540Z,31.72
2023-05-14T00:33:52.975Z,31.72
2023-05-14T00:34:23.398Z,31.72
2023-05-14T00:34:53.819Z,31.72
2023-05-14T00:35:24.242Z,31.72
2023-05-14T00:35:54.672Z,31.82
2023-05-14T00:36:25.092Z,31.72
2023-05-14T00:36:55.514Z,31.72
2023-05-14T00:37:25.944Z,31.72
2023-05-14T00:37:56.365Z,31.72
2023-05-14T00:38:26.783Z,31.72
2023-05-14T00:38:57.222Z,31.72
2023-05-14T00:39:27.645Z,31.82
2023-05-14T00:39:58.070Z,31.82
2023-05-14T00:40:28.503Z,31.72
2023-05-14T00:40:58.920Z,31.72
2023-05-14T00:41:29.350Z,31.72
2023-05-14T00:41:59.761Z,31.82
2023-05-14T00:42:30.192Z,31.82
2023-05-14T00:43:00.609Z,31.82
2023-05-14T00:43:31.034Z,31.82
2023-05-14T00:44:01.480Z,31.82
2023-05-14T00:44:31.884Z,31.82
2023-05-14T00:45:02.334Z,31.82
2023-05-14T00:45:32.756Z,31.82
2023-05-14T00:46:03.159Z,31.82
2023-05-14T00:46:33.643Z,31.82
2023-05-14T00:47:04.121Z,31.82
2023-05-14T00:47:34.518Z,31.82
2023-05-14T00:48:04.951Z,31.82
2023-05-14T00:48:35.358Z,31.82
2023-05-14T00:49:05.834Z,31.82
2023-05-14T00:49:36.224Z,31.82
2023-05-14T00:50:06.671Z,31.82
2023-05-14T00:50:37.075Z,31.82
2023-05-14T00:51:07.495Z,31.82
2023-05-14T00:51:37.924Z,31.92
2023-05-14T00:52:08.339Z,31.82
2023-05-14T00:52:38.788Z,31.92
2023-05-14T00:53:09.206Z,31.92
2023-05-14T00:53:39.667Z,31.92
2023-05-14T00:54:10.088Z,31.92
2023-05-14T00:54:40.507Z,31.92
2023-05-14T00:55:10.926Z,31.92
2023-05-14T00:55:41.345Z,31.92
2023-05-14T00:56:11.799Z,31.92
2023-05-14T00:56:42.221Z,31.92
2023-05-14T00:57:12.644Z,31.92
2023-05-14T00:57:43.077Z,31.92
2023-05-14T00:58:13.510Z,31.92
2023-05-14T00:58:43.918Z,31.92
2023-05-14T00:59:14.345Z,31.92
2023-05-14T00:59:44.772Z,31.92
2023-05-14T01:00:15.204Z,31.92
2023-05-14T01:00:45.690Z,31.92
2023-05-14T01:01:16.083Z,31.92
2023-05-14T01:01:46.484Z,31.92
2023-05-14T01:02:16.915Z,31.92
2023-05-14T01:02:47.409Z,32.02
2023-05-14T01:03:17.896Z,31.92
2023-05-14T01:03:48.440Z,31.92
2023-05-14T01:04:18.914Z,31.92
2023-05-14T01:04:49.350Z,31.92
2023-05-14T01:05:19.750Z,31.92
2023-05-14T01:05:50.170Z,31.92
2023-05-14T01:06:20.597Z,31.92
2023-05-14T01:06:51.032Z,31.92
2023-05-14T01:07:21.448Z,32.02
2023-05-14T01:07:51.883Z,32.02
2023-05-14T01:08:22.311Z,32.02
2023-05-14T01:08:52.727Z,32.02
2023-05-14T01:09:23.148Z,32.02
2023-05-14T01:09:53.585Z,32.02
2023-05-14T01:10:24.393Z,32.02
2023-05-14T01:10:54.977Z,32.02
2023-05-14T01:11:25.401Z,32.02
2023-05-14T01:11:55.816Z,32.02
2023-05-14T01:12:26.250Z,32.02
2023-05-14T01:12:56.685Z,32.02
2023-05-14T01:13:27.117Z,32.02
2023-05-14T01:13:57.541Z,32.02
2023-05-14T01:14:27.949Z,32.02
2023-05-14T01:14:58.376Z,32.02
2023-05-14T01:15:28.806Z,32.02
2023-05-14T01:15:59.275Z,32.02
2023-05-14T01:16:29.697Z,32.12
2023-05-14T01:17:00.144Z,32.02
2023-05-14T01:17:30.627Z,32.12
2023-05-14T01:18:01.058Z,32.02
2023-05-14T01:18:31.471Z,32.12
2023-05-14T01:19:01.884Z,32.12
2023-05-14T01:19:32.275Z,32.12
2023-05-14T01:20:02.703Z,32.12
2023-05-14T01:20:33.131Z,32.02
2023-05-14T01:21:03.552Z,32.12
2023-05-14T01:21:34.031Z,32.02
2023-05-14T01:22:04.449Z,32.12
2023-05-14T01:22:34.879Z,32.12
2023-05-14T01:23:05.301Z,32.02
2023-05-14T01:23:35.725Z,32.12
2023-05-14T01:24:06.151Z,32.12
2023-05-14T01:24:36.585Z,32.12
2023-05-14T01:25:07.023Z,32.12
2023-05-14T01:25:37.429Z,32.12
2023-05-14T01:26:07.845Z,32.12
2023-05-14T01:26:38.289Z,32.12
2023-05-14T01:27:08.705Z,32.12
2023-05-14T01:27:39.129Z,32.12
2023-05-14T01:28:09.553Z,32.12
2023-05-14T01:28:40.017Z,32.12
2023-05-14T01:29:10.425Z,32.12
2023-05-14T01:29:40.847Z,32.12
2023-05-14T01:30:11.278Z,32.12
2023-05-14T01:30:41.705Z,32.12
2023-05-14T01:31:12.160Z,32.12
2023-05-14T01:31:42.608Z,32.12
2023-05-14T01:32:13.037Z,32.12
2023-05-14T01:32:43.490Z,32.12
2023-05-14T01:33:13.884Z,32.12
2023-05-14T01:33:44.303Z,32.12
2023-05-14T01:34:14.726Z,32.12
2023-05-14T01:34:45.151Z,32.12
2023-05-14T01:35:15.577Z,32.12
2023-05-14T01:35:46.001Z,32.12
2023-05-14T01:36:16.420Z,32.12
2023-05-14T01:36:46.868Z,32.12
2023-05-14T01:37:17.286Z,32.12
2023-05-14T01:37:47.699Z,32.12
2023-05-14T01:38:18.119Z,32.12
2023-05-14T01:38:48.545Z,32.12
2023-05-14T01:39:18.968Z,32.12
2023-05-14T01:39:49.392Z,32.12
2023-05-14T01:40:19.860Z,32.12
2023-05-14T01:40:50.278Z,32.12
2023-05-14T01:41:20.727Z,32.12
2023-05-14T01:41:51.160Z,32.12
2023-05-14T01:42:21.583Z,32.12
2023-05-14T01:42:52.054Z,32.22
2023-05-14T01:43:22.482Z,32.12
2023-05-14T01:43:52.881Z,32.12
2023-05-14T01:44:23.305Z,32.22
2023-05-14T01:44:53.717Z,32.22
2023-05-14T01:45:24.144Z,32.22
2023-05-14T01:45:54.658Z,32.23
2023-05-14T01:46:25.160Z,32.23
2023-05-14T01:46:55.603Z,32.22
2023-05-14T01:47:26.051Z,32.22
2023-05-14T01:47:56.515Z,32.22
2023-05-14T01:48:26.906Z,32.22
2023-05-14T01:48:57.328Z,32.22
2023-05-14T01:49:27.759Z,32.22
2023-05-14T01:49:58.172Z,32.12
2023-05-14T01:50:28.598Z,32.12
2023-05-14T01:50:59.020Z,32.12
2023-05-14T01:51:29.468Z,32.22
2023-05-14T01:51:59.881Z,32.22
2023-05-14T01:52:30.315Z,32.22
2023-05-14T01:53:00.731Z,32.22
2023-05-14T01:53:31.151Z,32.22
2023-05-14T01:54:01.575Z,32.22
2023-05-14T01:54:31.998Z,32.23
2023-05-14T01:55:02.419Z,32.22
2023-05-14T01:55:32.846Z,32.23
2023-05-14T01:56:03.294Z,32.23
2023-05-14T01:56:33.710Z,32.23
2023-05-14T01:57:04.136Z,32.23
2023-05-14T01:57:34.552Z,32.23
2023-05-14T01:58:04.971Z,32.22
2023-05-14T01:58:35.396Z,32.23
2023-05-14T01:59:05.818Z,32.22
2023-05-14T01:59:36.241Z,32.23
2023-05-14T02:00:06.686Z,32.23
2023-05-14T02:00:37.117Z,32.23
2023-05-14T02:01:07.576Z,32.23
2023-05-14T02:01:38.171Z,32.33
2023-05-14T02:02:08.586Z,32.23
2023-05-14T02:02:39.054Z,32.23
2023-05-14T02:03:09.511Z,32.23
2023-05-14T02:03:39.939Z,32.23
2023-05-14T02:04:10.380Z,32.23
2023-05-14T02:04:40.773Z,32.23
2023-05-14T02:05:11.199Z,32.23
2023-05-14T02:05:41.642Z,32.33
2023-05-14T02:06:12.065Z,32.23
2023-05-14T02:06:42.491Z,32.33
2023-05-14T02:07:12.929Z,32.33
2023-05-14T02:07:43.348Z,32.33
2023-05-14T02:08:13.771Z,32.23
2023-05-14T02:08:44.209Z,32.23
2023-05-14T02:09:14.627Z,32.23
2023-05-14T02:09:45.054Z,32.23
2023-05-14T02:10:15.582Z,32.23
2023-05-14T02:10:45.978Z,32.23
2023-05-14T02:11:16.420Z,32.23
2023-05-14T02:11:46.838Z,32.23
2023-05-14T02:12:17.267Z,32.23
2023-05-14T02:12:47.684Z,32.23
2023-05-14T02:13:18.107Z,32.23
2023-05-14T02:13:48.531Z,32.23
2023-05-14T02:14:18.966Z,32.23
2023-05-14T02:14:49.388Z,32.23
2023-05-14T02:15:19.821Z,32.33
2023-05-14T02:15:50.296Z,32.23
2023-05-14T02:16:20.755Z,32.23
2023-05-14T02:16:51.213Z,32.23
2023-05-14T02:17:21.589Z,32.23
2023-05-14T02:17:52.037Z,32.33
2023-05-14T02:18:22.434Z,32.23
2023-05-14T02:18:52.909Z,32.23
2023-05-14T02:19:23.309Z,32.23
2023-05-14T02:19:53.764Z,32.23
2023-05-14T02:20:24.605Z,32.33
2023-05-14T02:20:55.163Z,32.23
2023-05-14T02:21:25.567Z,32.33
2023-05-14T02:21:55.986Z,32.23
2023-05-14T02:22:26.415Z,32.23
2023-05-14T02:22:56.851Z,32.23
2023-05-14T02:23:37.897Z,32.23
2023-05-14T02:24:02.588Z,32.33
2023-05-14T02:24:33.028Z,32.33
2023-05-14T02:25:03.459Z,32.33
2023-05-14T02:25:33.867Z,32.33
2023-05-14T02:26:04.297Z,32.23
2023-05-14T02:26:34.718Z,32.23
2023-05-14T02:27:05.134Z,32.33
2023-05-14T02:27:35.569Z,32.23
2023-05-14T02:28:05.992Z,32.33
2023-05-14T02:28:36.423Z,32.33
2023-05-14T02:29:06.843Z,32.33
2023-05-14T02:29:37.267Z,32.33
2023-05-14T02:30:07.693Z,32.33
2023-05-14T02:30:38.117Z,32.33
2023-05-14T02:31:08.574Z,32.33
2023-05-14T02:31:39.007Z,32.33
2023-05-14T02:32:09.458Z,32.33
2023-05-14T02:32:39.924Z,32.33
2023-05-14T02:33:10.513Z,32.33
2023-05-14T02:33:40.977Z,32.33
2023-05-14T02:34:11.362Z,32.33
2023-05-14T02:34:41.801Z,32.33
2023-05-14T02:35:12.250Z,32.33
2023-05-14T02:35:42.661Z,32.33
2023-05-14T02:36:13.083Z,32.33
2023-05-14T02:36:43.507Z,32.33
2023-05-14T02:37:13.933Z,32.33
2023-05-14T02:37:44.357Z,32.33
2023-05-14T02:38:14.777Z,32.33
2023-05-14T02:38:45.197Z,32.33
2023-05-14T02:39:15.654Z,32.33
2023-05-14T02:39:46.062Z,32.33
2023-05-14T02:40:16.485Z,32.33
2023-05-14T02:40:46.909Z,32.33
2023-05-14T02:41:17.330Z,32.33
2023-05-14T02:41:47.770Z,32.33
2023-05-14T02:42:18.174Z,32.33
2023-05-14T02:42:48.598Z,32.33
2023-05-14T02:43:19.024Z,32.33
2023-05-14T02:43:49.452Z,32.33
2023-05-14T02:44:19.878Z,32.33
2023-05-14T02:44:50.300Z,32.33
2023-05-14T02:45:20.719Z,32.33
2023-05-14T02:45:51.151Z,32.33
2023-05-14T02:46:21.656Z,32.33
2023-05-14T02:46:52.093Z,32.33
2023-05-14T02:47:22.536Z,32.33
2023-05-14T02:47:52.969Z,32.33
2023-05-14T02:48:23.357Z,32.33
2023-05-14T02:48:53.787Z,32.33
2023-05-14T02:49:24.220Z,32.33
2023-05-14T02:49:54.651Z,32.23
2023-05-14T02:50:25.397Z,32.23
2023-05-14T02:50:56.090Z,32.23
2023-05-14T02:51:26.512Z,32.23
2023-05-14T02:51:56.932Z,32.23
2023-05-14T02:52:27.366Z,32.23
2023-05-14T02:52:57.782Z,32.23
2023-05-14T02:53:28.220Z,32.23
2023-05-14T02:53:58.651Z,32.23
2023-05-14T02:54:29.089Z,32.23
2023-05-14T02:54:59.510Z,32.23
2023-05-14T02:55:29.935Z,32.23
2023-05-14T02:56:00.362Z,32.23
2023-05-14T02:56:30.775Z,32.23
2023-05-14T02:57:01.214Z,32.23
2023-05-14T02:57:31.655Z,32.23
2023-05-14T02:58:02.071Z,32.23
2023-05-14T02:58:32.512Z,32.23
2023-05-14T02:59:02.940Z,32.23
2023-05-14T02:59:33.692Z,32.23
2023-05-14T03:00:04.452Z,32.23
2023-05-14T03:00:35.382Z,32.23
2023-05-14T03:01:06.283Z,32.23
2023-05-14T03:01:37.148Z,32.23
2023-05-14T03:02:07.989Z,32.23
2023-05-14T03:02:38.928Z,32.23
2023-05-14T03:03:09.776Z,32.23
2023-05-14T03:03:40.709Z,32.23
2023-05-14T03:04:11.442Z,32.23
2023-05-14T03:04:41.884Z,32.23
2023-05-14T03:05:12.293Z,32.23
2023-05-14T03:05:42.710Z,32.23
2023-05-14T03:06:13.135Z,32.23
2023-05-14T03:06:43.555Z,32.23
2023-05-14T03:07:13.990Z,32.23
2023-05-14T03:07:44.420Z,32.14
2023-05-14T03:08:14.860Z,32.14
2023-05-14T03:08:45.292Z,32.23
2023-05-14T03:09:15.720Z,32.23
2023-05-14T03:09:46.133Z,32.23
2023-05-14T03:10:16.574Z,32.23
2023-05-14T03:10:46.992Z,32.23
2023-05-14T03:11:17.419Z,32.23
2023-05-14T03:11:47.841Z,32.23
2023-05-14T03:12:18.267Z,32.23
2023-05-14T03:12:48.701Z,32.23
2023-05-14T03:13:19.129Z,32.23
2023-05-14T03:13:49.563Z,32.23
2023-05-14T03:14:19.992Z,32.23
2023-05-14T03:14:50.412Z,32.23
2023-05-14T03:15:20.842Z,32.23
2023-05-14T03:15:51.259Z,32.23
2023-05-14T03:16:21.690Z,32.23
2023-05-14T03:16:52.171Z,32.23
2023-05-14T03:17:22.568Z,32.14
2023-05-14T03:17:53.051Z,32.23
2023-05-14T03:18:23.412Z,32.14
2023-05-14T03:18:53.859Z,32.23
2023-05-14T03:19:24.263Z,32.14
2023-05-14T03:19:54.683Z,32.23
2023-05-14T03:20:25.303Z,32.23
2023-05-14T03:20:55.847Z,32.14
2023-05-14T03:21:26.271Z,32.14
2023-05-14T03:21:56.693Z,32.14
2023-05-14T03:22:27.131Z,32.14
2023-05-14T03:22:57.555Z,32.14
2023-05-14T03:23:27.978Z,32.14
2023-05-14T03:23:58.404Z,32.14
2023-05-14T03:24:28.835Z,32.23
2023-05-14T03:24:59.245Z,32.14
2023-05-14T03:25:29.674Z,32.23
2023-05-14T03:26:00.115Z,32.23
2023-05-14T03:26:30.514Z,32.23
2023-05-14T03:27:00.937Z,32.23
2023-05-14T03:27:31.376Z,32.14
2023-05-14T03:28:01.796Z,32.14
2023-05-14T03:28:32.244Z,32.23
2023-05-14T03:29:02.647Z,32.23
2023-05-14T03:29:33.060Z,32.14
2023-05-14T03:30:03.495Z,32.14
2023-05-14T03:30:33.946Z,32.23
2023-05-14T03:31:04.398Z,32.14
2023-05-14T03:31:34.781Z,32.23
2023-05-14T03:32:05.214Z,32.23
2023-05-14T03:32:35.679Z,32.23
2023-05-14T03:33:06.256Z,32.14
2023-05-14T03:33:36.672Z,32.23
2023-05-14T03:34:07.107Z,32.23
2023-05-14T03:34:37.545Z,32.23
2023-05-14T03:35:07.967Z,32.14
2023-05-14T03:35:38.383Z,32.14
2023-05-14T03:36:08.804Z,32.14
2023-05-14T03:36:39.228Z,32.14
2023-05-14T03:37:09.675Z,32.14
2023-05-14T03:37:40.103Z,32.23
2023-05-14T03:38:10.520Z,32.14
2023-05-14T03:38:40.942Z,32.23
2023-05-14T03:39:11.376Z,32.23
2023-05-14T03:39:41.790Z,32.23
2023-05-14T03:40:12.211Z,32.23
2023-05-14T03:40:42.632Z,32.14
2023-05-14T03:41:13.056Z,32.14
2023-05-14T03:41:43.485Z,32.23
2023-05-14T03:42:13.929Z,32.23
2023-05-14T03:42:44.352Z,32.14
2023-05-14T03:43:14.791Z,32.14
2023-05-14T03:43:45.200Z,32.23
2023-05-14T03:44:15.618Z,32.14
2023-05-14T03:44:46.044Z,32.14
2023-05-14T03:45:16.481Z,32.14
2023-05-14T03:45:46.939Z,32.14
2023-05-14T03:46:17.360Z,32.23
2023-05-14T03:46:47.815Z,32.14
2023-05-14T03:47:18.228Z,32.23
2023-05-14T03:47:48.716Z,32.14
2023-05-14T03:48:19.183Z,32.14
2023-05-14T03:48:49.637Z,32.14
2023-05-14T03:49:20.025Z,32.14
2023-05-14T03:49:50.449Z,32.14
2023-05-14T03:50:20.927Z,32.14
2023-05-14T03:50:51.332Z,32.14
2023-05-14T03:51:21.766Z,32.14
2023-05-14T03:51:52.205Z,32.14
2023-05-14T03:52:22.624Z,32.14
2023-05-14T03:52:53.034Z,32.14
2023-05-14T03:53:23.469Z,32.23
2023-05-14T03:53:53.882Z,32.14
2023-05-14T03:54:24.301Z,32.14
2023-05-14T03:54:54.723Z,32.14
2023-05-14T03:55:25.150Z,32.23
2023-05-14T03:55:55.599Z,32.23
2023-05-14T03:56:26.012Z,32.14
2023-05-14T03:56:56.450Z,32.14
2023-05-14T03:57:26.888Z,32.14
2023-05-14T03:57:57.303Z,32.14
2023-05-14T03:58:27.721Z,32.14
2023-05-14T03:58:58.140Z,32.14
2023-05-14T03:59:28.557Z,32.14
2023-05-14T03:59:58.991Z,32.14
2023-05-14T04:00:29.412Z,32.14
2023-05-14T04:00:59.862Z,32.14
2023-05-14T04:01:30.297Z,32.14
2023-05-14T04:02:00.719Z,32.14
2023-05-14T04:02:31.233Z,32.14
2023-05-14T04:03:01.759Z,32.14
2023-05-14T04:03:32.467Z,32.14
2023-05-14T04:04:03.188Z,32.14
2023-05-14T04:04:33.622Z,32.14
2023-05-14T04:05:04.028Z,32.14
2023-05-14T04:05:34.458Z,32.14
2023-05-14T04:06:04.897Z,32.14
2023-05-14T04:06:35.320Z,32.14
2023-05-14T04:07:05.746Z,32.14
2023-05-14T04:07:36.163Z,32.14
2023-05-14T04:08:06.591Z,32.14
2023-05-14T04:08:37.038Z,32.14
2023-05-14T04:09:07.459Z,32.14
2023-05-14T04:09:37.900Z,32.14
2023-05-14T04:10:08.300Z,32.14
2023-05-14T04:10:38.736Z,32.14
2023-05-14T04:11:09.161Z,32.14
2023-05-14T04:11:39.588Z,32.14
2023-05-14T04:12:10.008Z,32.14
2023-05-14T04:12:40.442Z,32.14
2023-05-14T04:13:10.885Z,32.03
2023-05-14T04:13:41.311Z,32.03
2023-05-14T04:14:11.718Z,32.03
2023-05-14T04:14:42.142Z,32.03
2023-05-14T04:15:12.567Z,32.03
2023-05-14T04:15:43.001Z,32.03
2023-05-14T04:16:13.501Z,32.03
2023-05-14T04:16:43.949Z,32.03
2023-05-14T04:17:14.393Z,32.03
2023-05-14T04:17:44.833Z,32.03
2023-05-14T04:18:15.269Z,32.03
2023-05-14T04:18:45.738Z,32.03
2023-05-14T04:19:16.218Z,32.03
2023-05-14T04:19:46.737Z,32.03
2023-05-14T04:20:17.177Z,32.03
2023-05-14T04:20:47.605Z,32.03
2023-05-14T04:21:18.022Z,32.03
2023-05-14T04:21:48.450Z,32.03
2023-05-14T04:22:18.874Z,32.03
2023-05-14T04:22:49.296Z,31.93
2023-05-14T04:23:19.726Z,32.03
2023-05-14T04:23:50.142Z,32.03
2023-05-14T04:24:20.565Z,32.03
2023-05-14T04:24:50.993Z,31.93
2023-05-14T04:25:21.425Z,31.93
2023-05-14T04:25:51.848Z,31.93
2023-05-14T04:26:22.276Z,31.93
2023-05-14T04:26:52.713Z,31.93
2023-05-14T04:27:23.140Z,31.93
2023-05-14T04:27:53.559Z,31.84
2023-05-14T04:28:23.974Z,31.84
2023-05-14T04:28:54.411Z,31.84
2023-05-14T04:29:24.832Z,31.84
2023-05-14T04:29:55.269Z,31.84
2023-05-14T04:30:25.784Z,31.84
2023-05-14T04:30:56.273Z,31.84
2023-05-14T04:31:26.713Z,31.93
2023-05-14T04:31:57.166Z,31.93
2023-05-14T04:32:27.599Z,31.93
2023-05-14T04:32:58.047Z,31.93
2023-05-14T04:33:28.433Z,31.93
2023-05-14T04:33:58.943Z,31.84
2023-05-14T04:34:29.328Z,31.93
2023-05-14T04:34:59.771Z,31.93
2023-05-14T04:35:30.186Z,31.93
2023-05-14T04:36:00.606Z,31.84
2023-05-14T04:36:31.025Z,31.84
2023-05-14T04:37:01.448Z,31.84
2023-05-14T04:37:31.877Z,31.84
2023-05-14T04:38:02.315Z,31.84
2023-05-14T04:38:32.723Z,31.84
2023-05-14T04:39:03.142Z,31.93
2023-05-14T04:39:33.573Z,31.93
2023-05-14T04:40:03.995Z,31.93
2023-05-14T04:40:34.418Z,31.93
2023-05-14T04:41:04.848Z,31.84
2023-05-14T04:41:35.273Z,31.84
2023-05-14T04:42:05.693Z,31.93
2023-05-14T04:42:36.132Z,31.84
2023-05-14T04:43:06.548Z,31.93
2023-05-14T04:43:36.973Z,31.93
2023-05-14T04:44:07.401Z,31.93
2023-05-14T04:44:37.838Z,31.84
2023-05-14T04:45:08.260Z,31.84
2023-05-14T04:45:38.711Z,31.84
2023-05-14T04:46:09.175Z,31.84
2023-05-14T04:46:39.588Z,31.93
2023-05-14T04:47:09.968Z,31.93
2023-05-14T04:47:40.449Z,31.93
2023-05-14T04:48:10.906Z,31.84
2023-05-14T04:48:41.302Z,31.84
2023-05-14T04:49:11.757Z,31.84
2023-05-14T04:49:42.165Z,31.84
2023-05-14T04:50:12.589Z,31.84
2023-05-14T04:50:43.008Z,31.84
2023-05-14T04:51:13.429Z,31.84
2023-05-14T04:51:43.863Z,31.84
2023-05-14T04:52:14.288Z,31.93
2023-05-14T04:52:44.702Z,31.84
2023-05-14T04:53:15.130Z,31.84
2023-05-14T04:53:45.559Z,31.93
2023-05-14T04:54:16.057Z,31.93
2023-05-14T04:54:46.550Z,31.84
2023-05-14T04:55:16.950Z,31.84
2023-05-14T04:55:47.391Z,31.84
2023-05-14T04:56:17.802Z,31.84
2023-05-14T04:56:48.238Z,31.72
2023-05-14T04:57:18.654Z,31.72
2023-05-14T04:57:49.082Z,31.72
2023-05-14T04:58:19.503Z,31.72
2023-05-14T04:58:49.937Z,31.72
2023-05-14T04:59:20.367Z,31.62
2023-05-14T04:59:50.813Z,31.62
2023-05-14T05:00:21.409Z,31.62
2023-05-14T05:00:52.056Z,31.62
2023-05-14T05:01:22.528Z,31.62
2023-05-14T05:01:52.936Z,31.62
2023-05-14T05:02:23.412Z,31.62
2023-05-14T05:02:53.800Z,31.62
2023-05-14T05:03:24.333Z,31.62
2023-05-14T05:03:54.812Z,31.62
2023-05-14T05:04:25.252Z,31.62
2023-05-14T05:04:55.664Z,31.62
2023-05-14T05:05:26.085Z,31.62
2023-05-14T05:05:56.508Z,31.62
2023-05-14T05:06:26.929Z,31.52
2023-05-14T05:06:57.356Z,31.52
2023-05-14T05:07:27.779Z,31.52
2023-05-14T05:07:58.219Z,31.52
2023-05-14T05:08:28.638Z,31.42
2023-05-14T05:09:00.613Z,31.42
2023-05-14T05:09:32.410Z,31.52
2023-05-14T05:10:02.860Z,31.42
2023-05-14T05:10:33.283Z,31.42
2023-05-14T05:11:03.694Z,31.42
2023-05-14T05:11:34.121Z,31.32
2023-05-14T05:12:04.550Z,31.30
2023-05-14T05:12:34.967Z,31.21
2023-05-14T05:13:05.398Z,31.10
2023-05-14T05:13:35.840Z,31.01
2023-05-14T05:14:06.267Z,30.89
2023-05-14T05:14:36.688Z,30.89
2023-05-14T05:15:07.115Z,30.79
2023-05-14T05:15:37.585Z,30.79
2023-05-14T05:16:08.027Z,30.79
2023-05-14T05:16:38.441Z,30.79
2023-05-14T05:17:08.864Z,30.79
2023-05-14T05:17:39.306Z,30.79
2023-05-14T05:18:09.759Z,30.89
2023-05-14T05:18:40.293Z,30.89
2023-05-14T05:19:10.871Z,30.89
2023-05-14T05:19:44.212Z,30.89
2023-05-14T05:20:15.060Z,30.79
2023-05-14T05:20:45.478Z,30.89
2023-05-14T05:21:15.903Z,30.89
2023-05-14T05:21:46.326Z,31.01
2023-05-14T05:22:16.750Z,31.01
2023-05-14T05:22:47.186Z,31.10
2023-05-14T05:23:17.632Z,31.10
2023-05-14T05:23:48.040Z,31.10
2023-05-14T05:24:18.463Z,31.10
2023-05-14T05:24:50.093Z,31.10
2023-05-14T05:25:20.579Z,31.21
2023-05-14T05:25:50.996Z,31.21
2023-05-14T05:26:21.432Z,31.21
2023-05-14T05:26:51.855Z,31.21
2023-05-14T05:27:22.281Z,31.32
2023-05-14T05:27:52.720Z,31.32
2023-05-14T05:28:23.145Z,31.32
2023-05-14T05:28:53.576Z,31.32
2023-05-14T05:29:24.010Z,31.32
2023-05-14T05:29:54.432Z,31.32
2023-05-14T05:30:25.166Z,31.32
2023-05-14T05:30:55.858Z,31.42
2023-05-14T05:31:26.309Z,31.42
2023-05-14T05:31:56.728Z,31.42
2023-05-14T05:32:27.178Z,31.42
2023-05-14T05:32:57.686Z,31.42
2023-05-14T05:33:28.194Z,31.42
2023-05-14T05:33:58.613Z,31.42
2023-05-14T05:34:29.036Z,31.42
2023-05-14T05:34:59.504Z,31.42
2023-05-14T05:35:29.885Z,31.42
2023-05-14T05:36:00.315Z,31.42
2023-05-14T05:36:30.730Z,31.32
2023-05-14T05:37:01.151Z,31.32
2023-05-14T05:37:31.584Z,31.42
2023-05-14T05:38:02.064Z,31.32
2023-05-14T05:38:32.460Z,31.32
2023-05-14T05:39:02.874Z,31.32
2023-05-14T05:39:33.300Z,31.32
2023-05-14T05:40:03.744Z,31.32
2023-05-14T05:40:34.151Z,31.32
2023-05-14T05:41:04.592Z,31.30
2023-05-14T05:41:35.033Z,31.21
2023-05-14T05:42:05.469Z,31.21
2023-05-14T05:42:35.882Z,31.21
2023-05-14T05:43:06.318Z,31.21
2023-05-14T05:43:36.741Z,31.21
2023-05-14T05:44:07.167Z,31.21
2023-05-14T05:44:37.590Z,31.21
2023-05-14T05:45:08.030Z,31.10
2023-05-14T05:45:38.442Z,31.10
2023-05-14T05:46:08.880Z,31.10
2023-05-14T05:46:39.364Z,31.10
2023-05-14T05:47:09.778Z,31.10
2023-05-14T05:47:40.243Z,31.10
2023-05-14T05:48:10.637Z,31.10
2023-05-14T05:48:41.085Z,31.10
2023-05-14T05:49:11.497Z,31.01
2023-05-14T05:49:41.923Z,31.10
2023-05-14T05:50:12.381Z,31.10
2023-05-14T05:50:42.777Z,31.10
2023-05-14T05:51:13.199Z,31.01
2023-05-14T05:51:43.636Z,31.01
2023-05-14T05:52:14.087Z,31.01
2023-05-14T05:52:44.510Z,31.01
2023-05-14T05:53:14.933Z,31.01
2023-05-14T05:53:45.357Z,31.01
2023-05-14T05:54:15.778Z,31.01
2023-05-14T05:54:46.206Z,31.01
2023-05-14T05:55:16.636Z,31.01
2023-05-14T05:55:47.055Z,31.01
2023-05-14T05:56:17.496Z,31.01
2023-05-14T05:56:47.936Z,30.91
2023-05-14T05:57:18.355Z,31.01
2023-05-14T05:57:48.783Z,30.91
2023-05-14T05:58:19.215Z,31.01
2023-05-14T05:58:49.624Z,31.01
2023-05-14T05:59:20.061Z,31.01
2023-05-14T05:59:50.499Z,31.01
2023-05-14T06:00:21.033Z,30.91
2023-05-14T06:00:51.525Z,30.91
2023-05-14T06:01:21.947Z,31.01
2023-05-14T06:01:52.417Z,31.01
2023-05-14T06:02:22.957Z,31.01
2023-05-14T06:02:53.384Z,31.01
2023-05-14T06:03:23.812Z,30.91
2023-05-14T06:03:54.223Z,31.01
2023-05-14T06:04:24.650Z,31.01
2023-05-14T06:04:55.149Z,31.01
2023-05-14T06:05:25.643Z,31.01
2023-05-14T06:05:56.071Z,30.91
2023-05-14T06:06:26.514Z,30.91
2023-05-14T06:06:56.936Z,31.01
2023-05-14T06:07:27.359Z,31.01
2023-05-14T06:07:57.803Z,31.01
2023-05-14T06:08:28.236Z,31.01
2023-05-14T06:08:58.650Z,31.01
2023-05-14T06:09:29.077Z,31.01
2023-05-14T06:09:59.498Z,31.01
2023-05-14T06:10:29.988Z,31.01
2023-05-14T06:11:00.490Z,31.01
2023-05-14T06:11:30.901Z,30.91
2023-05-14T06:12:01.332Z,30.89
2023-05-14T06:12:31.759Z,30.79
2023-05-14T06:13:02.204Z,30.79
2023-05-14T06:13:32.601Z,30.69
2023-05-14T06:14:03.042Z,30.69
2023-05-14T06:14:33.461Z,30.58
2023-05-14T06:15:03.876Z,30.58
2023-05-14T06:15:34.295Z,30.48
2023-05-14T06:16:04.797Z,30.48
2023-05-14T06:16:35.257Z,30.58
2023-05-14T06:17:05.634Z,30.59
2023-05-14T06:17:36.098Z,30.48
2023-05-14T06:18:06.547Z,30.48
2023-05-14T06:18:36.941Z,30.38
2023-05-14T06:19:07.355Z,30.38
2023-05-14T06:19:37.781Z,30.28
2023-05-14T06:20:08.236Z,30.18
2023-05-14T06:20:38.712Z,30.18
2023-05-14T06:21:09.102Z,30.18
2023-05-14T06:21:39.548Z,30.16
2023-05-14T06:22:09.949Z,30.18
2023-05-14T06:22:40.400Z,30.18
2023-05-14T06:23:10.816Z,30.16
2023-05-14T06:23:41.254Z,30.16
2023-05-14T06:24:11.674Z,30.16
2023-05-14T06:24:42.102Z,30.16
2023-05-14T06:25:12.537Z,30.07
2023-05-14T06:25:42.980Z,30.07
2023-05-14T06:26:13.396Z,30.07
2023-05-14T06:26:43.836Z,30.16
2023-05-14T06:27:14.254Z,30.16
2023-05-14T06:27:44.684Z,30.16
2023-05-14T06:28:15.104Z,30.16
2023-05-14T06:28:45.525Z,30.16
2023-05-14T06:29:16.033Z,30.16
2023-05-14T06:29:46.477Z,30.16
2023-05-14T06:30:16.950Z,30.18
2023-05-14T06:30:47.360Z,30.16
2023-05-14T06:31:17.813Z,30.16
2023-05-14T06:31:48.210Z,30.18
2023-05-14T06:32:18.680Z,30.18